sensor_id;sensor_type;location;lat;lon;timestamp;pressure;altitude;pressure_sealevel;temperature;humidity
12197;BME280;6161;43.014;25.840;2022-08-19T00:01:20;99284.59;;;25.40;nan
12197;BME280;6161;43.014;25.840;2022-08-19T00:03:45;99288.59;;;25.32;nan
12197;BME280;6161;43.014;25.840;2022-08-19T00:06:10;99288.97;;;25.41;nan
12197;BME280;6161;43.014;25.840;2022-08-19T00:08:38;99293.41;;;25.42;nan
12197;BME280;6161;43.014;25.840;2022-08-19T00:11:03;99275.75;;;25.38;nan
12197;BME280;6161;43.014;25.840;2022-08-19T00:13:29;99282.22;;;25.48;nan
12197;BME280;6161;43.014;25.840;2022-08-19T00:15:55;99279.75;;;25.47;nan
12197;BME280;6161;43.014;25.840;2022-08-19T00:18:21;99264.34;;;25.46;nan
12197;BME280;6161;43.014;25.840;2022-08-19T00:20:46;99266.25;;;25.45;nan
12197;BME280;6161;43.014;25.840;2022-08-19T00:23:12;99284.38;;;25.46;nan
12197;BME280;6161;43.014;25.840;2022-08-19T00:25:37;99252.00;;;25.48;nan
12197;BME280;6161;43.014;25.840;2022-08-19T00:28:04;99288.53;;;25.49;nan
12197;BME280;6161;43.014;25.840;2022-08-19T00:30:29;99269.31;;;25.49;nan
12197;BME280;6161;43.014;25.840;2022-08-19T00:32:55;99270.59;;;25.41;nan
12197;BME280;6161;43.014;25.840;2022-08-19T00:35:22;99259.28;;;25.38;nan
12197;BME280;6161;43.014;25.840;2022-08-19T00:37:48;99254.47;;;25.28;nan
12197;BME280;6161;43.014;25.840;2022-08-19T00:40:15;99273.94;;;25.26;nan
12197;BME280;6161;43.014;25.840;2022-08-19T00:42:43;99266.56;;;25.27;nan
12197;BME280;6161;43.014;25.840;2022-08-19T00:45:14;99262.63;;;25.23;nan
12197;BME280;6161;43.014;25.840;2022-08-19T00:47:40;99279.94;;;25.23;nan
12197;BME280;6161;43.014;25.840;2022-08-19T00:50:08;99277.34;;;25.17;nan
12197;BME280;6161;43.014;25.840;2022-08-19T00:52:38;99256.44;;;25.15;nan
12197;BME280;6161;43.014;25.840;2022-08-19T00:55:07;99272.72;;;25.17;nan
12197;BME280;6161;43.014;25.840;2022-08-19T00:57:39;99255.97;;;25.19;nan
12197;BME280;6161;43.014;25.840;2022-08-19T01:00:09;99274.13;;;25.20;nan
12197;BME280;6161;43.014;25.840;2022-08-19T01:02:36;99275.19;;;25.19;nan
12197;BME280;6161;43.014;25.840;2022-08-19T01:05:06;99339.41;;;25.18;nan
12197;BME280;6161;43.014;25.840;2022-08-19T01:07:34;99261.47;;;25.19;nan
12197;BME280;6161;43.014;25.840;2022-08-19T01:10:00;99272.91;;;25.15;nan
12197;BME280;6161;43.014;25.840;2022-08-19T01:12:27;99249.25;;;25.09;nan
12197;BME280;6161;43.014;25.840;2022-08-19T01:14:53;99255.78;;;25.08;nan
12197;BME280;6161;43.014;25.840;2022-08-19T01:17:20;99273.28;;;25.02;nan
12197;BME280;6161;43.014;25.840;2022-08-19T01:19:46;99254.81;;;24.98;nan
12197;BME280;6161;43.014;25.840;2022-08-19T01:22:45;99274.03;;;24.98;nan
12197;BME280;6161;43.014;25.840;2022-08-19T01:25:13;99275.28;;;24.90;nan
12197;BME280;6161;43.014;25.840;2022-08-19T01:27:42;99275.28;;;24.90;nan
12197;BME280;6161;43.014;25.840;2022-08-19T01:30:19;99279.44;;;24.92;nan
12197;BME280;6161;43.014;25.840;2022-08-19T01:32:45;99275.28;;;24.90;nan
12197;BME280;6161;43.014;25.840;2022-08-19T01:35:12;99293.06;;;24.87;nan
12197;BME280;6161;43.014;25.840;2022-08-19T01:37:49;99292.38;;;24.80;nan
12197;BME280;6161;43.014;25.840;2022-08-19T01:40:16;99268.19;;;24.77;nan
12197;BME280;6161;43.014;25.840;2022-08-19T01:42:41;99261.31;;;24.75;nan
12197;BME280;6161;43.014;25.840;2022-08-19T01:45:07;99281.72;;;24.67;nan
12197;BME280;6161;43.014;25.840;2022-08-19T01:47:35;99258.47;;;24.69;nan
12197;BME280;6161;43.014;25.840;2022-08-19T01:50:00;99280.16;;;24.71;nan
12197;BME280;6161;43.014;25.840;2022-08-19T01:52:26;99279.47;;;24.64;nan
12197;BME280;6161;43.014;25.840;2022-08-19T01:57:18;99280.38;;;24.53;nan
12197;BME280;6161;43.014;25.840;2022-08-19T01:59:44;99298.97;;;24.50;nan
12197;BME280;6161;43.014;25.840;2022-08-19T02:02:10;99294.81;;;24.48;nan
12197;BME280;6161;43.014;25.840;2022-08-19T02:04:36;99266.91;;;24.51;nan
12197;BME280;6161;43.014;25.840;2022-08-19T02:07:03;99265.25;;;24.50;nan
12197;BME280;6161;43.014;25.840;2022-08-19T02:09:30;99271.84;;;24.37;nan
12197;BME280;6161;43.014;25.840;2022-08-19T02:11:56;99303.28;;;24.35;nan
12197;BME280;6161;43.014;25.840;2022-08-19T02:14:21;99239.53;;;24.11;nan
12197;BME280;6161;43.014;25.840;2022-08-19T02:16:47;99289.31;;;24.19;nan
12197;BME280;6161;43.014;25.840;2022-08-19T02:19:13;99301.69;;;24.22;nan
12197;BME280;6161;43.014;25.840;2022-08-19T02:21:38;99290.38;;;24.18;nan
12197;BME280;6161;43.014;25.840;2022-08-19T02:24:04;99270.63;;;24.16;nan
12197;BME280;6161;43.014;25.840;2022-08-19T02:26:29;99286.56;;;24.19;nan
12197;BME280;6161;43.014;25.840;2022-08-19T02:28:55;99268.78;;;24.22;nan
12197;BME280;6161;43.014;25.840;2022-08-19T02:31:24;99311.38;;;24.13;nan
12197;BME280;6161;43.014;25.840;2022-08-19T02:33:50;99302.47;;;24.05;nan
12197;BME280;6161;43.014;25.840;2022-08-19T02:36:17;99330.91;;;24.16;nan
12197;BME280;6161;43.014;25.840;2022-08-19T02:38:43;99301.34;;;24.18;nan
12197;BME280;6161;43.014;25.840;2022-08-19T02:41:19;99316.09;;;24.17;nan
12197;BME280;6161;43.014;25.840;2022-08-19T02:43:45;99336.59;;;24.15;nan
12197;BME280;6161;43.014;25.840;2022-08-19T02:46:24;99341.88;;;24.16;nan
12197;BME280;6161;43.014;25.840;2022-08-19T02:51:22;99349.88;;;24.06;nan
12197;BME280;6161;43.014;25.840;2022-08-19T02:53:47;99311.28;;;24.07;nan
12197;BME280;6161;43.014;25.840;2022-08-19T02:56:13;99302.47;;;24.05;nan
12197;BME280;6161;43.014;25.840;2022-08-19T02:58:39;99330.72;;;23.94;nan
12197;BME280;6161;43.014;25.840;2022-08-19T03:01:04;99275.69;;;23.72;nan
12197;BME280;6161;43.014;25.840;2022-08-19T03:06:23;99361.44;;;23.84;nan
12197;BME280;6161;43.014;25.840;2022-08-19T03:08:49;99328.59;;;23.84;nan
12197;BME280;6161;43.014;25.840;2022-08-19T03:11:40;99327.16;;;23.70;nan
12197;BME280;6161;43.014;25.840;2022-08-19T03:16:39;99316.31;;;23.52;nan
12197;BME280;6161;43.014;25.840;2022-08-19T03:21:32;99340.13;;;23.51;nan
12197;BME280;6161;43.014;25.840;2022-08-19T03:24:04;99324.44;;;23.58;nan
12197;BME280;6161;43.014;25.840;2022-08-19T03:28:56;99319.88;;;23.64;nan
12197;BME280;6161;43.014;25.840;2022-08-19T03:31:23;99331.44;;;23.66;nan
12197;BME280;6161;43.014;25.840;2022-08-19T03:33:50;99360.03;;;23.70;nan
12197;BME280;6161;43.014;25.840;2022-08-19T03:36:22;99351.56;;;23.72;nan
12197;BME280;6161;43.014;25.840;2022-08-19T03:38:54;99370.53;;;23.73;nan
12197;BME280;6161;43.014;25.840;2022-08-19T03:41:29;99362.50;;;23.60;nan
12197;BME280;6161;43.014;25.840;2022-08-19T03:43:56;99391.78;;;23.59;nan
12197;BME280;6161;43.014;25.840;2022-08-19T03:46:26;99382.25;;;23.62;nan
12197;BME280;6161;43.014;25.840;2022-08-19T03:48:54;99414.78;;;23.58;nan
12197;BME280;6161;43.014;25.840;2022-08-19T03:51:28;99404.78;;;23.64;nan
12197;BME280;6161;43.014;25.840;2022-08-19T03:53:55;99402.63;;;23.66;nan
12197;BME280;6161;43.014;25.840;2022-08-19T03:56:21;99374.19;;;23.55;nan
12197;BME280;6161;43.014;25.840;2022-08-19T03:58:47;99389.31;;;23.58;nan
12197;BME280;6161;43.014;25.840;2022-08-19T04:01:16;99379.78;;;23.49;nan
12197;BME280;6161;43.014;25.840;2022-08-19T04:03:42;99360.84;;;23.71;nan
12197;BME280;6161;43.014;25.840;2022-08-19T04:06:13;99463.97;;;23.77;nan
12197;BME280;6161;43.014;25.840;2022-08-19T04:08:40;99385.50;;;23.82;nan
12197;BME280;6161;43.014;25.840;2022-08-19T04:11:08;99458.75;;;23.87;nan
12197;BME280;6161;43.014;25.840;2022-08-19T04:16:00;99413.72;;;24.06;nan
12197;BME280;6161;43.014;25.840;2022-08-19T04:20:51;99401.88;;;24.29;nan
12197;BME280;6161;43.014;25.840;2022-08-19T04:25:44;99402.34;;;24.50;nan
12197;BME280;6161;43.014;25.840;2022-08-19T04:28:11;99379.88;;;24.65;nan
12197;BME280;6161;43.014;25.840;2022-08-19T04:30:47;99422.03;;;24.76;nan
12197;BME280;6161;43.014;25.840;2022-08-19T04:35:43;99414.88;;;25.03;nan
12197;BME280;6161;43.014;25.840;2022-08-19T04:40:43;99403.38;;;25.18;nan
12197;BME280;6161;43.014;25.840;2022-08-19T04:43:29;99419.78;;;25.30;nan
12197;BME280;6161;43.014;25.840;2022-08-19T04:45:55;99386.41;;;25.38;nan
12197;BME280;6161;43.014;25.840;2022-08-19T04:48:21;99419.03;;;25.51;nan
12197;BME280;6161;43.014;25.840;2022-08-19T04:50:56;99412.53;;;25.57;nan
12197;BME280;6161;43.014;25.840;2022-08-19T04:53:26;99419.84;;;25.69;nan
12197;BME280;6161;43.014;25.840;2022-08-19T04:55:57;99399.94;;;25.78;nan
12197;BME280;6161;43.014;25.840;2022-08-19T04:58:25;99378.72;;;25.91;nan
12197;BME280;6161;43.014;25.840;2022-08-19T05:00:51;99390.94;;;26.00;nan
12197;BME280;6161;43.014;25.840;2022-08-19T05:03:17;99402.66;;;26.12;nan
12197;BME280;6161;43.014;25.840;2022-08-19T05:05:44;99399.53;;;26.26;nan
12197;BME280;6161;43.014;25.840;2022-08-19T05:13:02;99408.00;;;26.63;nan
12197;BME280;6161;43.014;25.840;2022-08-19T05:15:28;99420.22;;;26.72;nan
12197;BME280;6161;43.014;25.840;2022-08-19T05:17:53;99428.59;;;26.82;nan
12197;BME280;6161;43.014;25.840;2022-08-19T05:23:22;99418.59;;;26.98;nan
12197;BME280;6161;43.014;25.840;2022-08-19T05:25:47;99407.72;;;27.14;nan
12197;BME280;6161;43.014;25.840;2022-08-19T05:28:13;99410.94;;;27.33;nan
12197;BME280;6161;43.014;25.840;2022-08-19T05:30:39;99405.25;;;27.44;nan
12197;BME280;6161;43.014;25.840;2022-08-19T05:33:07;99395.47;;;27.59;nan
12197;BME280;6161;43.014;25.840;2022-08-19T05:35:36;99421.16;;;27.69;nan
12197;BME280;6161;43.014;25.840;2022-08-19T05:38:02;99412.47;;;27.83;nan
12197;BME280;6161;43.014;25.840;2022-08-19T05:40:28;99435.75;;;28.02;nan
12197;BME280;6161;43.014;25.840;2022-08-19T05:42:53;99424.00;;;28.22;nan
12197;BME280;6161;43.014;25.840;2022-08-19T05:45:19;99413.91;;;28.43;nan
12197;BME280;6161;43.014;25.840;2022-08-19T05:47:46;99434.13;;;28.59;nan
12197;BME280;6161;43.014;25.840;2022-08-19T05:50:12;99426.19;;;28.73;nan
12197;BME280;6161;43.014;25.840;2022-08-19T05:52:38;99419.88;;;28.88;nan
12197;BME280;6161;43.014;25.840;2022-08-19T05:55:04;99406.41;;;29.07;nan
12197;BME280;6161;43.014;25.840;2022-08-19T05:57:30;99392.34;;;29.13;nan
12197;BME280;6161;43.014;25.840;2022-08-19T06:02:22;99436.53;;;29.08;nan
12197;BME280;6161;43.014;25.840;2022-08-19T06:04:48;99428.81;;;29.20;nan
12197;BME280;6161;43.014;25.840;2022-08-19T06:07:14;99408.91;;;29.29;nan
12197;BME280;6161;43.014;25.840;2022-08-19T06:09:40;99408.66;;;29.46;nan
12197;BME280;6161;43.014;25.840;2022-08-19T06:12:06;99399.81;;;29.64;nan
12197;BME280;6161;43.014;25.840;2022-08-19T06:14:34;99409.75;;;29.80;nan
12197;BME280;6161;43.014;25.840;2022-08-19T06:17:00;99404.78;;;29.88;nan
12197;BME280;6161;43.014;25.840;2022-08-19T06:19:28;99406.13;;;30.05;nan
12197;BME280;6161;43.014;25.840;2022-08-19T06:21:56;99401.66;;;30.20;nan
12197;BME280;6161;43.014;25.840;2022-08-19T06:24:25;99389.75;;;30.19;nan
12197;BME280;6161;43.014;25.840;2022-08-19T06:26:52;99405.75;;;30.38;nan
12197;BME280;6161;43.014;25.840;2022-08-19T06:29:22;99391.81;;;30.58;nan
12197;BME280;6161;43.014;25.840;2022-08-19T06:31:51;99397.81;;;30.76;nan
12197;BME280;6161;43.014;25.840;2022-08-19T06:34:18;99395.84;;;30.92;nan
12197;BME280;6161;43.014;25.840;2022-08-19T06:39:14;99405.78;;;31.32;nan
12197;BME280;6161;43.014;25.840;2022-08-19T06:41:43;99454.72;;;31.52;nan
12197;BME280;6161;43.014;25.840;2022-08-19T06:44:10;99401.34;;;31.70;nan
12197;BME280;6161;43.014;25.840;2022-08-19T06:46:37;99417.88;;;31.81;nan
12197;BME280;6161;43.014;25.840;2022-08-19T06:49:03;99379.63;;;31.77;nan
12197;BME280;6161;43.014;25.840;2022-08-19T06:51:29;99403.88;;;31.96;nan
12197;BME280;6161;43.014;25.840;2022-08-19T06:53:57;99409.22;;;32.16;nan
12197;BME280;6161;43.014;25.840;2022-08-19T06:56:26;99402.59;;;32.36;nan
12197;BME280;6161;43.014;25.840;2022-08-19T06:59:07;99411.16;;;32.64;nan
12197;BME280;6161;43.014;25.840;2022-08-19T07:01:38;99391.19;;;32.81;nan
12197;BME280;6161;43.014;25.840;2022-08-19T07:04:06;99401.25;;;32.96;nan
12197;BME280;6161;43.014;25.840;2022-08-19T07:06:32;99401.25;;;32.77;nan
12197;BME280;6161;43.014;25.840;2022-08-19T07:08:58;99387.75;;;32.70;nan
12197;BME280;6161;43.014;25.840;2022-08-19T07:11:24;99406.72;;;32.63;nan
12197;BME280;6161;43.014;25.840;2022-08-19T07:13:49;99398.13;;;32.65;nan
12197;BME280;6161;43.014;25.840;2022-08-19T07:16:18;99382.56;;;32.82;nan
12197;BME280;6161;43.014;25.840;2022-08-19T07:18:46;99385.31;;;33.01;nan
12197;BME280;6161;43.014;25.840;2022-08-19T07:21:21;99395.78;;;33.29;nan
12197;BME280;6161;43.014;25.840;2022-08-19T07:23:49;99398.00;;;33.45;nan
12197;BME280;6161;43.014;25.840;2022-08-19T07:26:23;99403.72;;;33.54;nan
12197;BME280;6161;43.014;25.840;2022-08-19T07:28:49;99380.88;;;33.71;nan
12197;BME280;6161;43.014;25.840;2022-08-19T07:31:18;99405.06;;;33.89;nan
12197;BME280;6161;43.014;25.840;2022-08-19T07:33:45;99395.19;;;34.11;nan
12197;BME280;6161;43.014;25.840;2022-08-19T07:36:13;99411.91;;;34.25;nan
12197;BME280;6161;43.014;25.840;2022-08-19T07:38:43;99396.75;;;34.31;nan
12197;BME280;6161;43.014;25.840;2022-08-19T07:41:13;99401.91;;;34.38;nan
12197;BME280;6161;43.014;25.840;2022-08-19T07:43:39;99391.69;;;34.33;nan
12197;BME280;6161;43.014;25.840;2022-08-19T07:46:06;99391.91;;;34.23;nan
12197;BME280;6161;43.014;25.840;2022-08-19T07:48:32;99391.28;;;34.26;nan
12197;BME280;6161;43.014;25.840;2022-08-19T07:51:00;99393.34;;;34.34;nan
12197;BME280;6161;43.014;25.840;2022-08-19T07:53:28;99400.16;;;34.14;nan
12197;BME280;6161;43.014;25.840;2022-08-19T07:55:55;99393.63;;;34.05;nan
12197;BME280;6161;43.014;25.840;2022-08-19T07:58:24;99400.25;;;33.62;nan
12197;BME280;6161;43.014;25.840;2022-08-19T08:00:50;99399.44;;;33.62;nan
12197;BME280;6161;43.014;25.840;2022-08-19T08:03:18;99366.34;;;33.60;nan
12197;BME280;6161;43.014;25.840;2022-08-19T08:05:44;99392.00;;;33.71;nan
12197;BME280;6161;43.014;25.840;2022-08-19T08:08:29;99405.06;;;33.89;nan
12197;BME280;6161;43.014;25.840;2022-08-19T08:11:14;99404.56;;;34.01;nan
12197;BME280;6161;43.014;25.840;2022-08-19T08:13:39;99387.78;;;34.20;nan
12197;BME280;6161;43.014;25.840;2022-08-19T08:16:06;99373.22;;;34.51;nan
12197;BME280;6161;43.014;25.840;2022-08-19T08:18:32;99378.25;;;34.77;nan
12197;BME280;6161;43.014;25.840;2022-08-19T08:20:59;99387.16;;;35.01;nan
12197;BME280;6161;43.014;25.840;2022-08-19T08:23:25;99382.44;;;35.24;nan
12197;BME280;6161;43.014;25.840;2022-08-19T08:25:52;99376.56;;;35.26;nan
12197;BME280;6161;43.014;25.840;2022-08-19T08:28:18;99385.41;;;35.28;nan
12197;BME280;6161;43.014;25.840;2022-08-19T08:30:46;99386.50;;;35.41;nan
12197;BME280;6161;43.014;25.840;2022-08-19T08:33:13;99377.03;;;35.50;nan
12197;BME280;6161;43.014;25.840;2022-08-19T08:35:40;99372.88;;;35.16;nan
12197;BME280;6161;43.014;25.840;2022-08-19T08:38:07;99379.78;;;35.05;nan
12197;BME280;6161;43.014;25.840;2022-08-19T08:45:42;99380.44;;;34.66;nan
12197;BME280;6161;43.014;25.840;2022-08-19T08:48:22;99378.16;;;34.68;nan
12197;BME280;6161;43.014;25.840;2022-08-19T08:50:50;99378.00;;;34.87;nan
12197;BME280;6161;43.014;25.840;2022-08-19T08:53:18;99400.97;;;34.70;nan
12197;BME280;6161;43.014;25.840;2022-08-19T08:55:45;99368.59;;;34.46;nan
12197;BME280;6161;43.014;25.840;2022-08-19T08:58:26;99377.03;;;34.69;nan
12197;BME280;6161;43.014;25.840;2022-08-19T09:00:53;99373.47;;;34.91;nan
12197;BME280;6161;43.014;25.840;2022-08-19T09:03:27;99363.50;;;35.12;nan
12197;BME280;6161;43.014;25.840;2022-08-19T09:08:35;99374.63;;;35.35;nan
12197;BME280;6161;43.014;25.840;2022-08-19T09:11:07;99362.63;;;35.57;nan
12197;BME280;6161;43.014;25.840;2022-08-19T09:16:07;99365.28;;;35.85;nan
12197;BME280;6161;43.014;25.840;2022-08-19T09:18:47;99364.47;;;35.84;nan
12197;BME280;6161;43.014;25.840;2022-08-19T09:21:14;99350.63;;;35.70;nan
12197;BME280;6161;43.014;25.840;2022-08-19T09:23:40;99340.06;;;35.67;nan
12197;BME280;6161;43.014;25.840;2022-08-19T09:26:11;99349.16;;;35.73;nan
12197;BME280;6161;43.014;25.840;2022-08-19T09:28:39;99355.44;;;35.87;nan
12197;BME280;6161;43.014;25.840;2022-08-19T09:31:12;99351.28;;;35.76;nan
12197;BME280;6161;43.014;25.840;2022-08-19T09:33:38;99348.00;;;35.83;nan
12197;BME280;6161;43.014;25.840;2022-08-19T09:36:10;99343.97;;;35.97;nan
12197;BME280;6161;43.014;25.840;2022-08-19T09:38:37;99399.56;;;36.08;nan
12197;BME280;6161;43.014;25.840;2022-08-19T09:41:07;99366.31;;;35.97;nan
12197;BME280;6161;43.014;25.840;2022-08-19T09:43:33;99343.81;;;35.94;nan
12197;BME280;6161;43.014;25.840;2022-08-19T09:46:02;99342.03;;;35.98;nan
12197;BME280;6161;43.014;25.840;2022-08-19T09:48:28;99359.34;;;36.17;nan
12197;BME280;6161;43.014;25.840;2022-08-19T09:50:53;99348.09;;;36.00;nan
12197;BME280;6161;43.014;25.840;2022-08-19T09:53:19;99318.00;;;35.88;nan
12197;BME280;6161;43.014;25.840;2022-08-19T09:55:48;99353.03;;;36.03;nan
12197;BME280;6161;43.014;25.840;2022-08-19T09:58:13;99369.53;;;35.82;nan
12197;BME280;6161;43.014;25.840;2022-08-19T10:03:04;99349.44;;;36.03;nan
12197;BME280;6161;43.014;25.840;2022-08-19T10:05:29;99388.63;;;36.20;nan
12197;BME280;6161;43.014;25.840;2022-08-19T10:08:15;99329.63;;;36.21;nan
12197;BME280;6161;43.014;25.840;2022-08-19T10:10:41;99323.66;;;36.06;nan
12197;BME280;6161;43.014;25.840;2022-08-19T10:13:09;99310.09;;;35.82;nan
12197;BME280;6161;43.014;25.840;2022-08-19T10:15:35;99344.16;;;36.01;nan
12197;BME280;6161;43.014;25.840;2022-08-19T10:18:01;99339.31;;;36.15;nan
12197;BME280;6161;43.014;25.840;2022-08-19T10:20:26;99339.66;;;36.22;nan
12197;BME280;6161;43.014;25.840;2022-08-19T10:22:52;99304.81;;;36.11;nan
12197;BME280;6161;43.014;25.840;2022-08-19T10:25:17;99341.31;;;36.23;nan
12197;BME280;6161;43.014;25.840;2022-08-19T10:27:43;99331.78;;;36.25;nan
12197;BME280;6161;43.014;25.840;2022-08-19T10:30:09;99340.19;;;36.33;nan
12197;BME280;6161;43.014;25.840;2022-08-19T10:32:35;99334.13;;;36.40;nan
12197;BME280;6161;43.014;25.840;2022-08-19T10:35:01;99327.88;;;36.43;nan
12197;BME280;6161;43.014;25.840;2022-08-19T10:37:28;99322.09;;;36.39;nan
12197;BME280;6161;43.014;25.840;2022-08-19T10:39:55;99314.38;;;36.28;nan
12197;BME280;6161;43.014;25.840;2022-08-19T10:42:24;99318.09;;;36.14;nan
12197;BME280;6161;43.014;25.840;2022-08-19T10:44:49;99308.75;;;36.10;nan
12197;BME280;6161;43.014;25.840;2022-08-19T10:47:15;99290.22;;;36.23;nan
12197;BME280;6161;43.014;25.840;2022-08-19T10:49:41;99282.81;;;36.44;nan
12197;BME280;6161;43.014;25.840;2022-08-19T10:52:24;99310.31;;;36.42;nan
12197;BME280;6161;43.014;25.840;2022-08-19T10:55:04;99292.84;;;36.37;nan
12197;BME280;6161;43.014;25.840;2022-08-19T10:57:48;99292.06;;;36.45;nan
12197;BME280;6161;43.014;25.840;2022-08-19T11:00:14;99344.81;;;36.47;nan
12197;BME280;6161;43.014;25.840;2022-08-19T11:02:40;99296.97;;;36.48;nan
12197;BME280;6161;43.014;25.840;2022-08-19T11:05:07;99279.91;;;36.58;nan
12197;BME280;6161;43.014;25.840;2022-08-19T11:07:34;99289.63;;;36.61;nan
12197;BME280;6161;43.014;25.840;2022-08-19T11:10:01;99305.41;;;36.74;nan
12197;BME280;6161;43.014;25.840;2022-08-19T11:12:28;99300.66;;;36.57;nan
12197;BME280;6161;43.014;25.840;2022-08-19T11:14:53;99323.00;;;36.57;nan
12197;BME280;6161;43.014;25.840;2022-08-19T11:19:45;99282.03;;;36.53;nan
12197;BME280;6161;43.014;25.840;2022-08-19T11:22:13;99285.00;;;36.56;nan
12197;BME280;6161;43.014;25.840;2022-08-19T11:27:07;99285.78;;;36.39;nan
12197;BME280;6161;43.014;25.840;2022-08-19T11:29:35;99266.13;;;36.05;nan
12197;BME280;6161;43.014;25.840;2022-08-19T11:32:08;99279.59;;;35.85;nan
12197;BME280;6161;43.014;25.840;2022-08-19T11:34:35;99291.56;;;35.86;nan
12197;BME280;6161;43.014;25.840;2022-08-19T11:37:02;99273.50;;;35.92;nan
12197;BME280;6161;43.014;25.840;2022-08-19T11:39:30;99268.72;;;35.84;nan
12197;BME280;6161;43.014;25.840;2022-08-19T11:41:58;99281.59;;;35.62;nan
12197;BME280;6161;43.014;25.840;2022-08-19T11:46:50;99261.47;;;35.83;nan
12197;BME280;6161;43.014;25.840;2022-08-19T11:49:18;99274.78;;;35.77;nan
12197;BME280;6161;43.014;25.840;2022-08-19T11:51:45;99253.41;;;35.64;nan
12197;BME280;6161;43.014;25.840;2022-08-19T11:54:13;99273.56;;;35.61;nan
12197;BME280;6161;43.014;25.840;2022-08-19T11:56:39;99302.56;;;35.51;nan
12197;BME280;6161;43.014;25.840;2022-08-19T11:59:05;99272.00;;;35.46;nan
12197;BME280;6161;43.014;25.840;2022-08-19T12:01:32;99274.41;;;35.38;nan
12197;BME280;6161;43.014;25.840;2022-08-19T12:03:57;99276.94;;;35.49;nan
12197;BME280;6161;43.014;25.840;2022-08-19T12:06:31;99260.75;;;35.59;nan
12197;BME280;6161;43.014;25.840;2022-08-19T12:09:00;99259.34;;;35.79;nan
12197;BME280;6161;43.014;25.840;2022-08-19T12:11:27;99255.28;;;35.94;nan
12197;BME280;6161;43.014;25.840;2022-08-19T12:13:53;99263.31;;;35.87;nan
12197;BME280;6161;43.014;25.840;2022-08-19T12:16:25;99264.06;;;35.62;nan
12197;BME280;6161;43.014;25.840;2022-08-19T12:18:52;99254.09;;;35.38;nan
12197;BME280;6161;43.014;25.840;2022-08-19T12:21:21;99230.38;;;35.27;nan
12197;BME280;6161;43.014;25.840;2022-08-19T12:23:49;99233.63;;;35.20;nan
12197;BME280;6161;43.014;25.840;2022-08-19T12:26:15;99235.19;;;35.35;nan
12197;BME280;6161;43.014;25.840;2022-08-19T12:28:41;99237.88;;;35.49;nan
12197;BME280;6161;43.014;25.840;2022-08-19T12:31:07;99240.41;;;35.59;nan
12197;BME280;6161;43.014;25.840;2022-08-19T12:33:33;99212.50;;;35.59;nan
12197;BME280;6161;43.014;25.840;2022-08-19T12:36:07;99229.59;;;35.66;nan
12197;BME280;6161;43.014;25.840;2022-08-19T12:38:34;99207.53;;;35.56;nan
12197;BME280;6161;43.014;25.840;2022-08-19T12:40:59;99238.88;;;35.53;nan
12197;BME280;6161;43.014;25.840;2022-08-19T12:43:25;99243.25;;;35.45;nan
12197;BME280;6161;43.014;25.840;2022-08-19T12:45:51;99237.69;;;35.45;nan
12197;BME280;6161;43.014;25.840;2022-08-19T12:48:17;99216.81;;;35.43;nan
12197;BME280;6161;43.014;25.840;2022-08-19T12:50:44;99239.06;;;35.56;nan
12197;BME280;6161;43.014;25.840;2022-08-19T12:53:13;99231.72;;;35.69;nan
12197;BME280;6161;43.014;25.840;2022-08-19T12:55:38;99225.84;;;35.79;nan
12197;BME280;6161;43.014;25.840;2022-08-19T12:58:04;99207.50;;;35.96;nan
12197;BME280;6161;43.014;25.840;2022-08-19T13:00:31;99232.84;;;36.08;nan
12197;BME280;6161;43.014;25.840;2022-08-19T13:02:58;99230.19;;;36.03;nan
12197;BME280;6161;43.014;25.840;2022-08-19T13:05:28;99215.25;;;36.08;nan
12197;BME280;6161;43.014;25.840;2022-08-19T13:07:56;99220.53;;;36.18;nan
12197;BME280;6161;43.014;25.840;2022-08-19T13:10:24;99225.47;;;36.21;nan
12197;BME280;6161;43.014;25.840;2022-08-19T13:12:51;99220.03;;;36.25;nan
12197;BME280;6161;43.014;25.840;2022-08-19T13:15:17;99216.13;;;36.26;nan
12197;BME280;6161;43.014;25.840;2022-08-19T13:17:46;99207.38;;;36.27;nan
12197;BME280;6161;43.014;25.840;2022-08-19T13:20:15;99209.72;;;36.25;nan
12197;BME280;6161;43.014;25.840;2022-08-19T13:22:45;99206.25;;;36.37;nan
12197;BME280;6161;43.014;25.840;2022-08-19T13:25:12;99255.22;;;36.43;nan
12197;BME280;6161;43.014;25.840;2022-08-19T13:27:38;99199.69;;;36.33;nan
12197;BME280;6161;43.014;25.840;2022-08-19T13:30:06;99215.78;;;36.36;nan
12197;BME280;6161;43.014;25.840;2022-08-19T13:32:50;99217.41;;;36.37;nan
12197;BME280;6161;43.014;25.840;2022-08-19T13:35:34;99167.31;;;36.23;nan
12197;BME280;6161;43.014;25.840;2022-08-19T13:38:00;99202.31;;;36.20;nan
12197;BME280;6161;43.014;25.840;2022-08-19T13:40:30;99186.81;;;35.97;nan
12197;BME280;6161;43.014;25.840;2022-08-19T13:42:59;99201.09;;;36.04;nan
12197;BME280;6161;43.014;25.840;2022-08-19T13:45:27;99201.09;;;36.04;nan
12197;BME280;6161;43.014;25.840;2022-08-19T13:47:54;99201.59;;;36.06;nan
12197;BME280;6161;43.014;25.840;2022-08-19T13:50:23;99205.09;;;36.12;nan
12197;BME280;6161;43.014;25.840;2022-08-19T13:52:51;99195.06;;;36.19;nan
12197;BME280;6161;43.014;25.840;2022-08-19T13:55:17;99183.41;;;36.26;nan
12197;BME280;6161;43.014;25.840;2022-08-19T13:57:42;99201.31;;;36.34;nan
12197;BME280;6161;43.014;25.840;2022-08-19T14:00:13;99202.13;;;36.34;nan
12197;BME280;6161;43.014;25.840;2022-08-19T14:02:40;99176.50;;;36.41;nan
12197;BME280;6161;43.014;25.840;2022-08-19T14:05:09;99175.19;;;36.21;nan
12197;BME280;6161;43.014;25.840;2022-08-19T14:07:36;99156.59;;;35.99;nan
12197;BME280;6161;43.014;25.840;2022-08-19T14:10:07;99172.69;;;35.93;nan
12197;BME280;6161;43.014;25.840;2022-08-19T14:12:33;99180.72;;;35.95;nan
12197;BME280;6161;43.014;25.840;2022-08-19T14:14:59;99157.72;;;35.80;nan
12197;BME280;6161;43.014;25.840;2022-08-19T14:17:25;99184.13;;;35.74;nan
12197;BME280;6161;43.014;25.840;2022-08-19T14:22:21;99171.81;;;35.67;nan
12197;BME280;6161;43.014;25.840;2022-08-19T14:24:47;99198.59;;;35.76;nan
12197;BME280;6161;43.014;25.840;2022-08-19T14:27:13;99200.06;;;35.74;nan
12197;BME280;6161;43.014;25.840;2022-08-19T14:29:38;99157.69;;;35.63;nan